Time;durP1;ratioP1;P1;durP2;ratioP2;P2;SDS_P1;SDS_P2;PMS_P1;PMS_P2;Temp;Humidity;BMP_temperature;BMP_pressure;BME280_temperature;BME280_humidity;BME280_pressure;Samples;Min_cycle;Max_cycle;Signal;HPM_P1;HPM_P2
2023/05/18 00:01:09;;;;;;;;;5.00;3.67;;;;;15.00;48.15;102093.41;4970963;28;45463;-73
2023/05/18 00:03:35;;;;;;;;;6.00;4.00;;;;;14.99;47.85;102088.97;4954217;28;45415;-74
2023/05/18 00:06:05;;;;;;;;;7.00;5.67;;;;;14.91;48.31;102077.50;4954967;28;45357;-73
2023/05/18 00:08:35;;;;;;;;;8.33;5.33;;;;;14.64;48.78;102028.16;4962107;28;45463;-72
2023/05/18 00:11:02;;;;;;;;;7.67;7.67;;;;;14.69;48.49;102033.41;4956908;28;45602;-73
2023/05/18 00:13:31;;;;;;;;;9.00;7.00;;;;;14.54;48.90;102010.47;4952913;28;46878;-73
2023/05/18 00:16:00;;;;;;;;;7.00;5.00;;;;;14.77;48.27;102060.72;4968036;28;45408;-73
2023/05/18 00:18:26;;;;;;;;;5.00;2.67;;;;;14.55;48.50;102015.78;4975736;28;45471;-73
2023/05/18 00:20:59;;;;;;;;;6.33;6.33;;;;;14.69;48.75;102050.13;4975857;28;45601;-73
2023/05/18 00:23:28;;;;;;;;;7.67;5.67;;;;;14.70;48.98;102062.44;4978741;28;47722;-72
2023/05/18 00:25:58;;;;;;;;;7.00;6.00;;;;;14.49;48.64;102023.59;4979935;28;45441;-72
2023/05/18 00:28:24;;;;;;;;;5.33;4.00;;;;;14.55;48.45;102031.59;4979975;28;45354;-72
2023/05/18 00:30:50;;;;;;;;;7.00;5.00;;;;;14.79;48.84;102082.72;4968215;28;45874;-72
2023/05/18 00:33:16;;;;;;;;;3.00;3.00;;;;;14.74;48.53;102072.16;4954211;28;45590;-73
2023/05/18 00:35:42;;;;;;;;;5.33;5.33;;;;;14.70;48.95;102080.91;4952728;28;46243;-72
2023/05/18 00:38:07;;;;;;;;;4.67;4.00;;;;;14.68;48.92;102079.13;4952708;28;45645;-74
2023/05/18 00:40:33;;;;;;;;;4.67;4.67;;;;;14.62;48.60;102069.44;4954765;28;45434;-73
2023/05/18 00:42:59;;;;;;;;;5.00;5.00;;;;;14.62;48.89;102079.97;4955807;28;45856;-73
2023/05/18 00:45:25;;;;;;;;;6.00;4.00;;;;;14.35;49.11;102031.41;4952776;28;45541;-74
2023/05/18 00:47:51;;;;;;;;;4.00;4.00;;;;;14.51;48.55;102060.53;4948613;28;45444;-73
2023/05/18 00:50:17;;;;;;;;;5.00;5.00;;;;;14.58;49.33;102078.19;4943759;28;45585;-73
2023/05/18 00:52:47;;;;;;;;;4.00;4.00;;;;;14.57;49.07;102077.31;4950024;28;47431;-73
2023/05/18 00:55:16;;;;;;;;;4.00;4.00;;;;;14.47;48.86;102058.72;4949380;28;45380;-73
2023/05/18 00:57:44;;;;;;;;;6.67;4.67;;;;;14.42;48.99;102061.34;4949850;28;45498;-72
2023/05/18 01:00:12;;;;;;;;;4.33;2.67;;;;;14.54;49.33;102082.53;4955649;28;45308;-73
2023/05/18 01:02:41;;;;;;;;;4.00;4.00;;;;;14.54;49.04;102081.66;4955948;28;45555;-73
2023/05/18 01:05:09;;;;;;;;;6.00;4.00;;;;;14.45;49.50;102065.75;4956702;28;45464;-72
2023/05/18 01:07:41;;;;;;;;;8.00;5.00;;;;;14.39;49.15;102056.94;4957666;28;45541;-72
2023/05/18 01:10:08;;;;;;;;;5.33;4.00;;;;;14.52;49.16;102079.00;4957332;28;45616;-72
2023/05/18 01:13:04;;;;;;;;;5.00;5.00;;;;;14.36;49.47;102085.91;4959802;28;47251;-71
2023/05/18 01:15:37;;;;;;;;;6.67;4.00;;;;;14.25;50.02;102078.78;4959216;28;45482;-73
2023/05/18 01:18:30;;;;;;;;;5.00;3.00;;;;;14.11;50.41;102083.94;4959382;28;45408;-72
2023/05/18 01:21:09;;;;;;;;;6.67;5.00;;;;;14.11;50.11;102071.63;4957953;28;45604;-73
2023/05/18 01:23:51;;;;;;;;;7.00;5.00;;;;;14.05;49.98;102075.97;4959278;28;45693;-73
2023/05/18 01:26:28;;;;;;;;;6.00;5.00;;;;;13.87;50.77;102084.59;4956424;28;45580;-73
2023/05/18 01:28:56;;;;;;;;;7.00;6.00;;;;;13.84;51.11;102080.16;4958611;28;45553;-72
2023/05/18 01:31:22;;;;;;;;;6.67;5.00;;;;;13.73;50.95;102079.16;4949337;28;45680;-73
2023/05/18 01:33:48;;;;;;;;;6.33;4.67;;;;;13.71;51.06;102073.00;4945869;28;45417;-73
2023/05/18 01:36:14;;;;;;;;;5.00;5.00;;;;;13.74;50.71;102073.94;4939804;28;45523;-73
2023/05/18 01:38:41;;;;;;;;;5.00;3.00;;;;;13.59;50.98;102044.78;4940173;28;45709;-73
2023/05/18 01:41:23;;;;;;;;;4.00;4.00;;;;;13.83;51.03;102073.13;4939942;28;45624;-74
2023/05/18 01:43:57;;;;;;;;;5.67;4.33;;;;;13.92;50.60;102085.50;4939309;28;46330;-73
2023/05/18 01:46:33;;;;;;;;;5.67;4.00;;;;;13.69;51.06;102040.50;4938764;28;45398;-72
2023/05/18 01:49:05;;;;;;;;;5.67;4.00;;;;;13.49;51.24;102008.72;4940334;28;45506;-73
2023/05/18 01:51:37;;;;;;;;;6.00;4.00;;;;;13.87;51.33;102074.94;4945042;28;45411;-73
2023/05/18 01:54:06;;;;;;;;;7.33;4.33;;;;;14.00;50.84;102089.13;4954142;28;45340;-73
2023/05/18 01:56:34;;;;;;;;;5.00;3.00;;;;;13.86;50.76;102065.28;4954703;28;45354;-72
2023/05/18 01:59:00;;;;;;;;;6.00;5.00;;;;;13.41;51.36;101998.13;4957432;28;45448;-73
2023/05/18 02:01:26;;;;;;;;;5.33;5.00;;;;;13.90;51.64;102092.50;4956734;28;45403;-73
2023/05/18 02:03:52;;;;;;;;;6.00;5.00;;;;;13.75;51.35;102065.16;4955244;28;45559;-73
2023/05/18 02:06:17;;;;;;;;;6.00;4.33;;;;;13.91;51.97;102092.53;4954684;28;45888;-73
2023/05/18 02:08:44;;;;;;;;;7.00;3.67;;;;;13.92;51.61;102094.28;4955011;28;45373;-73
2023/05/18 02:11:09;;;;;;;;;6.67;5.00;;;;;13.91;51.65;102094.28;4955358;28;45739;-73
2023/05/18 02:13:35;;;;;;;;;9.00;4.00;;;;;13.83;51.29;102073.13;4954506;28;46402;-72
2023/05/18 02:16:02;;;;;;;;;4.67;4.33;;;;;13.65;51.94;102047.50;4955238;28;45468;-73
2023/05/18 02:18:35;;;;;;;;;8.33;6.00;;;;;13.60;51.95;102048.34;4955811;28;45443;-72
2023/05/18 02:21:01;;;;;;;;;8.67;5.33;;;;;13.63;52.31;102062.41;4958182;28;45396;-72
2023/05/18 02:23:27;;;;;;;;;4.33;4.00;;;;;13.79;52.06;102095.06;4955140;28;46527;-73
2023/05/18 02:25:55;;;;;;;;;3.67;3.67;;;;;13.78;51.58;102088.88;4956159;28;45497;-73
2023/05/18 02:28:22;;;;;;;;;3.67;3.67;;;;;13.73;51.99;102081.81;4959229;28;45381;-73
2023/05/18 02:30:47;;;;;;;;;5.00;4.33;;;;;13.73;51.82;102093.22;4958894;28;45441;-72
2023/05/18 02:33:18;;;;;;;;;6.33;5.00;;;;;13.73;52.04;102094.97;4955004;28;45437;-73
2023/05/18 02:35:47;;;;;;;;;4.33;4.33;;;;;13.60;51.76;102075.53;4954437;28;45425;-73
2023/05/18 02:38:16;;;;;;;;;6.00;4.00;;;;;13.74;52.43;102094.13;4954455;28;45459;-73
2023/05/18 02:40:44;;;;;;;;;5.00;5.00;;;;;13.74;52.11;102107.28;4956271;28;45539;-72
2023/05/18 02:43:10;;;;;;;;;8.00;5.00;;;;;13.68;52.40;102091.41;4958523;28;46539;-73
2023/05/18 02:45:35;;;;;;;;;9.67;6.00;;;;;13.68;52.41;102084.38;4955192;28;45330;-73
2023/05/18 02:48:01;;;;;;;;;5.00;5.00;;;;;13.49;52.67;102053.47;4954765;28;45778;-72
2023/05/18 02:50:27;;;;;;;;;7.67;5.00;;;;;13.59;52.00;102073.75;4957847;28;45408;-73
2023/05/18 02:52:52;;;;;;;;;5.67;4.00;;;;;13.54;52.60;102063.16;4954359;28;46053;-73
2023/05/18 02:55:18;;;;;;;;;7.00;5.00;;;;;13.64;52.35;102082.56;4954340;28;45251;-73
2023/05/18 02:57:45;;;;;;;;;4.67;2.00;;;;;13.63;52.11;102087.84;4954390;28;45456;-72
2023/05/18 03:00:15;;;;;;;;;6.33;6.33;;;;;13.65;52.41;102094.91;4954243;28;45537;-72
2023/05/18 03:02:42;;;;;;;;;7.50;5.00;;;;;13.51;52.06;102073.69;4953969;28;45569;-72
2023/05/18 03:05:09;;;;;;;;;4.67;3.00;;;;;13.55;52.32;102090.41;4954047;28;45499;-72
2023/05/18 03:07:34;;;;;;;;;8.00;5.33;;;;;13.60;52.32;102090.47;4956063;28;45524;-73
2023/05/18 03:10:02;;;;;;;;;6.00;4.67;;;;;13.46;52.91;102069.25;4957305;28;45184;-73
2023/05/18 03:12:29;;;;;;;;;5.33;5.00;;;;;13.49;52.58;102080.66;4960273;28;45870;-73
2023/05/18 03:14:54;;;;;;;;;6.00;4.33;;;;;13.36;52.64;102057.72;4961537;28;45334;-72
2023/05/18 03:17:20;;;;;;;;;6.00;5.33;;;;;13.28;52.90;102044.47;4957316;28;45546;-73
2023/05/18 03:19:46;;;;;;;;;6.00;5.33;;;;;13.53;52.55;102086.88;4957555;28;45559;-73
2023/05/18 03:22:12;;;;;;;;;5.67;5.67;;;;;13.52;52.37;102069.28;4957131;28;46629;-73
2023/05/18 03:24:39;;;;;;;;;6.00;6.00;;;;;13.29;52.33;102043.59;4957072;28;45538;-72
2023/05/18 03:27:06;;;;;;;;;7.00;6.33;;;;;13.40;52.79;102062.13;4957199;28;45446;-74
2023/05/18 03:29:33;;;;;;;;;4.67;4.00;;;;;13.44;52.42;102066.56;4957725;28;45349;-74
2023/05/18 03:32:01;;;;;;;;;6.00;4.33;;;;;13.43;52.54;102062.19;4956614;28;45543;-73
2023/05/18 03:34:27;;;;;;;;;8.67;6.00;;;;;13.40;52.42;102063.88;4959047;28;45430;-72
2023/05/18 03:36:53;;;;;;;;;6.67;6.67;;;;;13.49;52.97;102079.78;4961532;28;45546;-72
2023/05/18 03:39:19;;;;;;;;;6.67;5.00;;;;;13.42;52.72;102067.44;4961945;28;45200;-73
2023/05/18 03:41:49;;;;;;;;;10.50;7.50;;;;;13.19;52.76;102022.38;4957745;28;45442;-72
2023/05/18 03:44:15;;;;;;;;;12.00;6.33;;;;;13.38;52.98;102065.63;4956368;28;45314;-72
2023/05/18 03:46:41;;;;;;;;;9.00;7.00;;;;;13.37;52.99;102075.28;4957626;28;45362;-73
2023/05/18 03:49:06;;;;;;;;;10.00;7.33;;;;;13.34;52.43;102064.72;4959525;28;45521;-73
2023/05/18 03:51:32;;;;;;;;;8.00;7.00;;;;;13.39;52.65;102076.19;4950879;28;45594;-73
2023/05/18 03:53:58;;;;;;;;;8.67;6.00;;;;;13.12;52.83;102039.84;4939837;28;45478;-73
2023/05/18 03:56:24;;;;;;;;;8.67;6.00;;;;;13.30;52.81;102068.16;4938790;28;45295;-73
2023/05/18 03:58:50;;;;;;;;;10.50;7.00;;;;;13.37;52.81;102080.53;4938093;28;45328;-72
2023/05/18 04:01:17;;;;;;;;;8.33;6.33;;;;;13.22;52.45;102065.41;4940948;28;46324;-72
2023/05/18 04:03:44;;;;;;;;;7.00;6.00;;;;;13.36;52.94;102090.19;4941281;28;45386;-72
2023/05/18 04:06:10;;;;;;;;;10.00;8.75;;;;;13.34;53.03;102078.75;4941801;28;45262;-72
2023/05/18 04:08:36;;;;;;;;;8.75;5.25;;;;;13.26;52.97;102076.84;4941842;28;45355;-72
2023/05/18 04:11:02;;;;;;;;;10.67;8.67;;;;;13.17;52.80;102085.53;4938046;28;45428;-71
2023/05/18 04:13:31;;;;;;;;;6.75;6.75;;;;;13.04;53.21;102073.94;4937546;28;45491;-71
2023/05/18 04:15:58;;;;;;;;;11.33;7.00;;;;;13.08;53.39;102094.16;4941275;28;45345;-73
2023/05/18 04:18:24;;;;;;;;;9.67;6.67;;;;;13.02;53.17;102082.69;4941612;28;45404;-73
2023/05/18 04:20:49;;;;;;;;;9.00;6.25;;;;;13.02;53.64;102087.94;4941192;28;45533;-72
2023/05/18 04:23:19;;;;;;;;;7.33;6.33;;;;;13.06;53.27;102093.25;4941436;28;45472;-72
2023/05/18 04:25:45;;;;;;;;;11.75;7.50;;;;;13.14;53.46;102104.78;4941186;28;45525;-71
2023/05/18 04:28:11;;;;;;;;;11.00;9.25;;;;;13.16;52.87;102097.78;4941312;28;45283;-73
2023/05/18 04:30:36;;;;;;;;;10.50;8.75;;;;;13.09;53.33;102087.16;4939610;28;46472;-71
2023/05/18 04:33:02;;;;;;;;;9.00;8.25;;;;;13.19;53.44;102109.19;4936636;28;45369;-72
2023/05/18 04:35:32;;;;;;;;;13.50;10.50;;;;;13.00;53.48;102090.53;4938157;28;45473;-73
2023/05/18 04:37:58;;;;;;;;;11.75;10.25;;;;;13.09;53.64;102108.19;4936188;28;45471;-73
2023/05/18 04:40:24;;;;;;;;;11.50;9.25;;;;;13.09;55.06;102103.81;4935866;28;47098;-74
2023/05/18 04:42:50;;;;;;;;;11.50;9.75;;;;;13.11;54.25;102099.47;4941021;28;45491;-72
2023/05/18 04:45:18;;;;;;;;;11.75;10.50;;;;;12.97;53.55;102072.09;4941289;28;45479;-73
2023/05/18 04:47:52;;;;;;;;;8.50;8.50;;;;;12.70;53.70;102028.78;4940619;28;45504;-77
2023/05/18 04:50:18;;;;;;;;;10.00;8.75;;;;;13.21;53.17;102104.84;4941015;28;45460;-76
2023/05/18 04:52:47;;;;;;;;;11.25;8.25;;;;;13.21;53.21;102111.00;4955461;28;45504;-76
2023/05/18 04:55:21;;;;;;;;;8.25;8.00;;;;;13.31;52.98;102110.28;4959893;28;45379;-71
2023/05/18 04:57:48;;;;;;;;;12.00;8.50;;;;;13.34;52.62;102114.72;4955380;28;45584;-75
2023/05/18 05:00:19;;;;;;;;;10.67;8.67;;;;;13.20;53.20;102082.94;4954124;28;46092;-74
2023/05/18 05:02:48;;;;;;;;;6.00;6.00;;;;;13.42;52.53;102109.53;4955716;28;45471;-74
2023/05/18 05:05:18;;;;;;;;;8.67;7.00;;;;;13.39;52.40;102102.50;4956115;28;45420;-73
2023/05/18 05:07:44;;;;;;;;;8.33;6.00;;;;;13.24;52.02;102079.47;4955935;28;45548;-74
2023/05/18 05:10:10;;;;;;;;;8.33;7.00;;;;;13.45;51.75;102110.44;4956585;28;46021;-74
2023/05/18 05:12:40;;;;;;;;;8.33;7.00;;;;;13.53;52.19;102110.56;4958269;28;45377;-73
2023/05/18 05:15:06;;;;;;;;;10.25;9.00;;;;;13.50;51.77;102090.34;4956368;28;45398;-73
2023/05/18 05:17:32;;;;;;;;;7.75;6.00;;;;;13.65;51.84;102117.72;4959240;28;45799;-72
2023/05/18 05:19:59;;;;;;;;;9.25;9.00;;;;;13.66;51.26;102119.47;4956171;28;46306;-75
2023/05/18 05:22:25;;;;;;;;;13.00;9.33;;;;;13.34;51.88;102052.44;4956332;28;45428;-74
2023/05/18 05:24:50;;;;;;;;;8.50;7.00;;;;;13.62;51.22;102097.50;4956320;28;45409;-74
2023/05/18 05:27:17;;;;;;;;;6.67;5.33;;;;;13.78;51.44;102119.59;4955240;28;45488;-75
2023/05/18 05:29:45;;;;;;;;;10.67;8.00;;;;;13.60;51.13;102093.97;4955977;28;45636;-74
2023/05/18 05:32:12;;;;;;;;;10.25;7.75;;;;;13.75;51.23;102115.19;4957853;28;45528;-74
2023/05/18 05:34:39;;;;;;;;;7.67;6.33;;;;;13.79;51.07;102117.00;4954581;28;45357;-75
2023/05/18 05:37:05;;;;;;;;;9.75;6.75;;;;;13.39;50.93;102041.97;4955965;28;45548;-72
2023/05/18 05:39:31;;;;;;;;;8.00;7.00;;;;;13.94;51.17;102137.34;4955643;28;45535;-74
2023/05/18 05:41:56;;;;;;;;;9.00;8.25;;;;;13.89;50.97;102120.59;4956709;28;45446;-73
2023/05/18 05:44:22;;;;;;;;;10.75;7.25;;;;;13.97;51.21;102139.97;4955250;28;45437;-75
2023/05/18 05:46:47;;;;;;;;;14.33;9.67;;;;;14.00;50.62;102133.91;4958462;28;45405;-72
2023/05/18 05:49:14;;;;;;;;;15.33;8.67;;;;;13.63;50.44;102066.78;4959192;28;46035;-72
2023/05/18 05:51:39;;;;;;;;;10.50;7.75;;;;;13.88;50.95;102100.41;4952812;28;45266;-73
2023/05/18 05:54:05;;;;;;;;;9.75;9.50;;;;;14.17;50.24;102134.06;4938846;28;45263;-73
2023/05/18 05:56:32;;;;;;;;;11.00;8.67;;;;;14.26;49.82;102146.41;4940584;28;45250;-75
2023/05/18 05:59:03;;;;;;;;;14.00;11.00;;;;;14.10;49.85;102126.97;4940243;28;46123;-71
2023/05/18 06:01:29;;;;;;;;;16.00;10.25;;;;;14.09;49.92;102110.25;4945385;28;45525;-74
2023/05/18 06:03:54;;;;;;;;;13.50;10.25;;;;;14.24;49.51;102120.06;4945565;28;45981;-75
2023/05/18 06:06:20;;;;;;;;;9.33;8.00;;;;;14.38;49.53;102133.38;4943923;28;45451;-74
2023/05/18 06:08:46;;;;;;;;;7.67;7.67;;;;;14.38;49.09;102131.63;4945120;28;45480;-75
2023/05/18 06:11:12;;;;;;;;;10.33;8.00;;;;;14.54;48.88;102135.28;4946450;28;45603;-75
2023/05/18 06:13:38;;;;;;;;;7.00;6.67;;;;;14.67;48.65;102140.66;4953221;28;46472;-74
2023/05/18 06:16:03;;;;;;;;;13.50;12.00;;;;;14.68;48.99;102124.84;4954523;28;45468;-75
2023/05/18 06:18:33;;;;;;;;;9.25;9.00;;;;;14.76;48.85;102144.25;4954162;28;46065;-75
2023/05/18 06:21:00;;;;;;;;;20.75;13.00;;;;;14.75;48.46;102144.22;4953568;28;45321;-75
2023/05/18 06:23:25;;;;;;;;;9.67;7.67;;;;;14.90;48.55;102154.00;4954987;28;45544;-76
2023/05/18 06:25:52;;;;;;;;;9.00;8.00;;;;;15.02;48.19;102144.41;4957354;28;45251;-76
2023/05/18 06:28:17;;;;;;;;;8.33;8.33;;;;;15.12;47.54;102140.06;4959174;28;45720;-74
2023/05/18 06:30:46;;;;;;;;;8.33;7.33;;;;;15.29;47.70;102139.28;4958558;28;45511;-74
2023/05/18 06:33:13;;;;;;;;;11.67;7.00;;;;;15.35;47.27;102140.19;4957786;28;45337;-75
2023/05/18 06:35:40;;;;;;;;;8.00;7.67;;;;;15.40;46.98;102142.84;4954279;28;45510;-73
2023/05/18 06:38:05;;;;;;;;;16.33;12.00;;;;;15.46;46.68;102132.31;4951798;28;46405;-76
2023/05/18 06:40:32;;;;;;;;;9.00;8.00;;;;;15.64;46.98;102137.66;4957904;28;45767;-77
2023/05/18 06:42:58;;;;;;;;;10.00;7.67;;;;;15.79;46.38;102139.50;4959185;28;45499;-76
2023/05/18 06:45:25;;;;;;;;;13.67;7.67;;;;;15.67;46.26;102111.25;4957943;28;45488;-73
2023/05/18 06:47:51;;;;;;;;;9.00;8.00;;;;;15.76;45.99;102107.81;4960655;28;45611;-75
2023/05/18 06:50:20;;;;;;;;;10.33;8.67;;;;;16.11;45.85;102144.88;4957301;28;45539;-74
2023/05/18 06:52:46;;;;;;;;;13.33;8.00;;;;;16.14;45.69;102122.84;4953821;28;45451;-74
2023/05/18 06:55:14;;;;;;;;;8.33;6.00;;;;;16.11;45.43;102085.81;4956852;28;45438;-74
2023/05/18 06:57:40;;;;;;;;;7.00;5.00;;;;;16.61;44.64;102142.22;4957476;28;45939;-74
2023/05/18 07:00:09;;;;;;;;;8.00;7.67;;;;;16.77;43.93;102138.69;4960169;28;45456;-75
2023/05/18 07:02:34;;;;;;;;;11.67;8.67;;;;;16.95;43.55;102136.03;4957848;28;45481;-72
2023/05/18 07:05:07;;;;;;;;;12.00;9.67;;;;;17.02;43.71;102131.63;4957686;28;45559;-73
2023/05/18 07:07:33;;;;;;;;;14.00;9.67;;;;;17.11;43.45;102126.31;4957545;28;46266;-75
2023/05/18 07:09:59;;;;;;;;;11.67;8.67;;;;;17.15;43.59;102129.81;4960755;28;45534;-72
2023/05/18 07:12:26;;;;;;;;;10.00;8.67;;;;;17.14;43.22;102128.06;4962620;28;45738;-73
2023/05/18 07:14:52;;;;;;;;;13.00;9.67;;;;;16.93;42.99;102086.66;4965288;28;45678;-74
2023/05/18 07:17:18;;;;;;;;;12.00;9.67;;;;;17.15;42.83;102121.88;4958749;28;45994;-74
2023/05/18 07:19:46;;;;;;;;;20.33;9.00;;;;;17.30;42.70;102132.41;4960069;28;45891;-73
2023/05/18 07:22:21;;;;;;;;;16.67;10.67;;;;;17.38;42.61;102137.69;4962755;28;45467;-72
2023/05/18 07:24:50;;;;;;;;;12.00;9.33;;;;;17.35;42.34;102119.16;4958898;28;45518;-73
2023/05/18 07:27:17;;;;;;;;;11.00;9.67;;;;;17.49;42.05;102141.19;4956206;28;45529;-72
2023/05/18 07:29:43;;;;;;;;;9.00;7.67;;;;;17.50;42.26;102131.47;4955473;28;45784;-74
2023/05/18 07:32:09;;;;;;;;;13.00;9.00;;;;;17.64;41.54;102129.63;4956876;28;45490;-72
2023/05/18 07:34:34;;;;;;;;;10.33;8.67;;;;;17.62;41.54;102125.22;4956198;28;45585;-72
2023/05/18 07:37:00;;;;;;;;;8.67;8.33;;;;;17.65;41.79;102126.06;4958679;28;47712;-73
2023/05/18 07:39:28;;;;;;;;;16.67;11.67;;;;;17.63;40.99;102109.31;4957598;28;45523;-72
2023/05/18 07:41:55;;;;;;;;;13.33;11.00;;;;;17.53;41.48;102097.88;4955953;28;45426;-73
2023/05/18 07:44:20;;;;;;;;;12.00;10.67;;;;;17.30;41.47;102050.34;4957710;28;45516;-73
2023/05/18 07:46:46;;;;;;;;;11.67;8.67;;;;;17.65;41.13;102094.28;4960761;28;45594;-73
2023/05/18 07:49:12;;;;;;;;;18.33;11.33;;;;;17.79;40.81;102116.28;4960660;28;45733;-72
2023/05/18 07:51:37;;;;;;;;;18.67;14.00;;;;;17.59;41.15;102081.94;4956938;28;45308;-73
2023/05/18 07:54:04;;;;;;;;;12.00;11.00;;;;;17.65;40.80;102094.28;4972290;28;45664;-73
2023/05/18 07:56:30;;;;;;;;;10.33;9.33;;;;;17.57;40.91;102075.78;4960491;28;45381;-74
2023/05/18 07:58:56;;;;;;;;;11.33;9.67;;;;;17.83;40.69;102108.34;4960657;28;45579;-73
2023/05/18 08:01:26;;;;;;;;;9.33;7.67;;;;;17.44;42.04;102010.53;4959388;28;45501;-73
2023/05/18 08:03:52;;;;;;;;;9.33;7.00;;;;;18.10;41.90;102097.53;4960919;28;45993;-73
2023/05/18 08:06:18;;;;;;;;;5.33;5.33;;;;;18.29;41.11;102118.63;4960442;28;46493;-72
2023/05/18 08:08:43;;;;;;;;;7.33;6.00;;;;;18.34;41.20;102109.75;4960322;28;45507;-72
2023/05/18 08:11:09;;;;;;;;;13.00;9.33;;;;;18.39;40.98;102107.06;4956379;28;45716;-72
2023/05/18 08:13:35;;;;;;;;;12.67;9.67;;;;;18.49;40.43;102108.72;4956119;28;45435;-72
2023/05/18 08:16:00;;;;;;;;;7.00;5.67;;;;;18.33;40.79;102070.84;4956296;28;45724;-71
2023/05/18 08:18:27;;;;;;;;;9.67;8.33;;;;;18.38;40.63;102094.66;4954913;28;45548;-71
2023/05/18 08:20:54;;;;;;;;;10.33;7.33;;;;;18.34;40.63;102107.09;4960116;28;45367;-72
2023/05/18 08:23:20;;;;;;;;;10.67;8.00;;;;;18.15;40.91;102095.75;4979005;28;45342;-74
2023/05/18 08:25:46;;;;;;;;;11.67;9.00;;;;;18.21;41.25;102095.69;4979511;28;45499;-72
2023/05/18 08:28:12;;;;;;;;;15.67;11.33;;;;;18.02;40.95;102083.47;4979834;28;45360;-72
2023/05/18 08:30:37;;;;;;;;;13.33;12.00;;;;;17.94;40.04;102098.56;4963860;28;45384;-73
2023/05/18 08:33:03;;;;;;;;;9.00;8.33;;;;;17.74;40.78;102094.22;4960663;28;45341;-73
2023/05/18 08:35:32;;;;;;;;;9.00;7.33;;;;;17.86;40.79;102103.91;4960398;28;46185;-75
2023/05/18 08:38:01;;;;;;;;;11.33;7.67;;;;;17.90;41.50;102102.13;4956558;28;45385;-75
2023/05/18 08:40:35;;;;;;;;;11.00;8.33;;;;;17.77;41.63;102091.56;4944998;28;45614;-75
2023/05/18 08:43:17;;;;;;;;;13.67;10.33;;;;;17.73;40.84;102087.19;4936907;28;45484;-75
2023/05/18 08:45:57;;;;;;;;;12.67;9.67;;;;;17.60;40.78;102070.44;4934946;28;47018;-75
2023/05/18 08:48:25;;;;;;;;;9.67;9.33;;;;;17.79;40.78;102094.19;4953512;28;45755;-77
2023/05/18 08:50:53;;;;;;;;;9.00;9.00;;;;;17.62;40.41;102062.50;4943584;28;45411;-74
2023/05/18 08:53:23;;;;;;;;;12.67;8.67;;;;;18.03;40.10;102101.13;4936344;28;45488;-75
2023/05/18 08:55:52;;;;;;;;;8.67;8.67;;;;;17.94;39.57;102064.13;4936016;28;46542;-72
2023/05/18 08:58:20;;;;;;;;;13.00;9.33;;;;;18.09;41.72;102094.91;4935643;28;45367;-71
2023/05/18 09:00:46;;;;;;;;;7.67;7.67;;;;;18.22;41.90;102086.88;4935849;28;45632;-72
2023/05/18 09:03:12;;;;;;;;;7.33;6.33;;;;;18.24;41.45;102081.53;4936040;28;45468;-72
2023/05/18 09:05:40;;;;;;;;;15.33;12.00;;;;;18.30;39.62;102075.31;4936222;28;45564;-73
2023/05/18 09:08:08;;;;;;;;;14.00;13.00;;;;;18.41;38.71;102091.97;4952455;28;45487;-73
2023/05/18 09:10:35;;;;;;;;;13.33;13.00;;;;;17.77;38.32;102001.47;4943110;28;45523;-75
2023/05/18 09:13:04;;;;;;;;;15.67;12.67;;;;;17.94;37.74;102057.03;4936284;28;45500;-76
2023/05/18 09:15:30;;;;;;;;;11.33;11.33;;;;;17.94;38.35;102090.63;4936524;28;46075;-72
2023/05/18 09:17:55;;;;;;;;;16.00;11.33;;;;;17.79;38.78;102081.81;4950616;28;45886;-75
2023/05/18 09:20:21;;;;;;;;;16.33;11.00;;;;;17.91;38.97;102093.28;4953904;28;45691;-73
2023/05/18 09:22:50;;;;;;;;;9.67;8.00;;;;;17.96;39.01;102065.84;4955281;28;45523;-74
2023/05/18 09:25:17;;;;;;;;;12.33;10.00;;;;;18.30;39.04;102086.78;4956384;28;47082;-73
2023/05/18 09:27:43;;;;;;;;;10.33;7.33;;;;;18.11;38.14;102027.72;4959621;28;45247;-74
2023/05/18 09:30:10;;;;;;;;;15.33;11.00;;;;;18.31;37.80;102053.19;4959431;28;45636;-75
2023/05/18 09:32:36;;;;;;;;;14.33;10.33;;;;;18.32;37.17;102039.91;4954030;28;45510;-75
2023/05/18 09:35:11;;;;;;;;;12.00;9.33;;;;;18.58;37.20;102071.50;4954449;28;46162;-75
2023/05/18 09:37:41;;;;;;;;;12.67;12.00;;;;;18.52;37.00;102039.72;4955229;28;45709;-75
2023/05/18 09:40:07;;;;;;;;;15.33;13.67;;;;;18.74;36.73;102080.16;4958460;28;45720;-76
2023/05/18 09:42:41;;;;;;;;;9.67;9.00;;;;;18.75;37.44;102086.38;4974794;28;45516;-75
2023/05/18 09:45:17;;;;;;;;;7.33;6.00;;;;;18.77;39.98;102060.69;4959623;28;46752;-73
2023/05/18 09:47:54;;;;;;;;;14.33;10.00;;;;;18.92;40.17;102067.63;4959508;28;45351;-74
2023/05/18 09:50:24;;;;;;;;;10.33;10.33;;;;;19.07;39.69;102073.63;4957980;28;45488;-72
2023/05/18 09:52:50;;;;;;;;;12.67;9.67;;;;;19.07;40.04;102078.06;4956182;28;45415;-75
2023/05/18 09:55:19;;;;;;;;;12.33;9.00;;;;;19.17;39.01;102070.84;4954826;28;46138;-75
2023/05/18 09:57:49;;;;;;;;;15.33;13.67;;;;;19.24;37.21;102076.09;4955128;28;46157;-75
2023/05/18 10:00:17;;;;;;;;;14.00;12.33;;;;;18.87;38.40;102034.97;4956888;28;45382;-75
2023/05/18 10:02:47;;;;;;;;;17.00;15.00;;;;;18.56;36.31;102020.22;4956335;28;45438;-75
2023/05/18 10:05:32;;;;;;;;;16.00;13.00;;;;;18.25;37.59;102055.88;4953166;28;45441;-75
2023/05/18 10:07:59;;;;;;;;;8.67;7.33;;;;;18.45;39.83;102067.19;4954117;28;45540;-74
2023/05/18 10:10:26;;;;;;;;;12.67;9.33;;;;;18.55;38.22;102044.97;4953824;28;45551;-76
2023/05/18 10:12:53;;;;;;;;;13.33;9.00;;;;;18.88;37.59;102074.75;4955690;28;45560;-74
2023/05/18 10:15:23;;;;;;;;;11.33;9.00;;;;;19.06;37.29;102076.31;4957176;28;45513;-75
2023/05/18 10:17:54;;;;;;;;;12.67;10.33;;;;;19.26;36.67;102073.41;4959313;28;45377;-72
2023/05/18 10:20:25;;;;;;;;;11.33;8.33;;;;;19.41;37.46;102065.25;4955363;28;45341;-71
2023/05/18 10:22:57;;;;;;;;;12.33;10.00;;;;;19.60;35.27;102065.88;4955335;28;45547;-75
2023/05/18 10:25:25;;;;;;;;;9.33;8.67;;;;;19.64;37.40;102059.59;4953887;28;46732;-72
2023/05/18 10:27:56;;;;;;;;;12.67;10.00;;;;;19.83;37.26;102048.72;4956844;28;45293;-72
2023/05/18 10:30:22;;;;;;;;;17.33;15.67;;;;;19.78;33.16;102061.19;4962232;28;45342;-72
2023/05/18 10:32:49;;;;;;;;;16.67;15.00;;;;;19.59;33.72;102058.78;4955653;28;45476;-73
2023/05/18 10:35:15;;;;;;;;;16.33;10.67;;;;;19.67;35.26;102054.25;4954713;28;46099;-71
2023/05/18 10:37:48;;;;;;;;;10.00;10.00;;;;;19.82;36.02;102039.88;4953135;28;45358;-71
2023/05/18 10:40:16;;;;;;;;;8.33;6.67;;;;;20.07;35.90;102050.09;4954807;28;45461;-73
2023/05/18 10:42:43;;;;;;;;;8.67;8.33;;;;;20.21;35.58;102036.56;4957970;28;45398;-71
2023/05/18 10:45:09;;;;;;;;;7.00;7.00;;;;;20.46;35.45;102061.84;4958555;28;46943;-72
2023/05/18 10:47:38;;;;;;;;;9.67;8.33;;;;;20.49;34.74;102045.81;4958816;28;45440;-73
2023/05/18 10:50:05;;;;;;;;;17.00;12.67;;;;;20.60;33.62;102040.31;4957678;28;45811;-76
2023/05/18 10:52:32;;;;;;;;;16.67;13.67;;;;;20.46;31.54;102051.19;4955553;28;45453;-76
2023/05/18 10:54:59;;;;;;;;;13.67;9.00;;;;;20.39;32.22;102044.22;4958926;28;45345;-77
2023/05/18 10:57:33;;;;;;;;;12.00;10.00;;;;;20.38;32.15;102045.13;4957359;28;45688;-76
2023/05/18 10:59:59;;;;;;;;;13.33;10.00;;;;;20.47;32.22;102039.63;4955154;28;45697;-76
2023/05/18 11:02:26;;;;;;;;;10.67;9.33;;;;;20.43;31.97;102037.03;4958164;28;45528;-72
2023/05/18 11:04:52;;;;;;;;;17.00;12.67;;;;;20.56;32.08;102040.41;4956009;28;46634;-74
2023/05/18 11:07:19;;;;;;;;;8.00;6.67;;;;;20.58;32.32;102027.97;4955639;28;45655;-73
2023/05/18 11:09:47;;;;;;;;;20.67;17.00;;;;;20.71;31.31;102045.44;4968040;28;45478;-74
2023/05/18 11:12:15;;;;;;;;;33.33;30.00;;;;;20.43;31.04;102024.66;4953582;28;45368;-75
2023/05/18 11:14:49;;;;;;;;;61.75;47.75;;;;;20.41;32.73;102033.56;4954214;28;45445;-72
2023/05/18 11:17:24;;;;;;;;;18.33;17.00;;;;;20.52;31.52;102035.13;4954020;28;45678;-74
2023/05/18 11:20:05;;;;;;;;;24.00;18.33;;;;;20.43;31.55;102042.38;4955273;28;45439;-73
2023/05/18 11:22:56;;;;;;;;;21.00;18.00;;;;;20.45;31.88;102041.44;4957130;28;45362;-74